sensor_id;sensor_type;location;lat;lon;timestamp;P1;durP1;ratioP1;P2;durP2;ratioP2
24157;SDS011;12316;50.904;4.200;2023-12-28T00:00:55;3.55;;;2.75;;
24157;SDS011;12316;50.904;4.200;2023-12-28T00:03:21;5.20;;;2.97;;
24157;SDS011;12316;50.904;4.200;2023-12-28T00:05:47;4.60;;;2.80;;
24157;SDS011;12316;50.904;4.200;2023-12-28T00:08:12;5.78;;;3.08;;
24157;SDS011;12316;50.904;4.200;2023-12-28T00:10:38;6.13;;;2.72;;
24157;SDS011;12316;50.904;4.200;2023-12-28T00:13:04;4.38;;;3.10;;
24157;SDS011;12316;50.904;4.200;2023-12-28T00:15:29;4.75;;;2.83;;
24157;SDS011;12316;50.904;4.200;2023-12-28T00:17:55;5.10;;;2.90;;
24157;SDS011;12316;50.904;4.200;2023-12-28T00:20:20;5.90;;;3.00;;
24157;SDS011;12316;50.904;4.200;2023-12-28T00:22:46;4.38;;;2.90;;
24157;SDS011;12316;50.904;4.200;2023-12-28T00:25:13;3.85;;;2.80;;
24157;SDS011;12316;50.904;4.200;2023-12-28T00:27:39;4.85;;;2.97;;
24157;SDS011;12316;50.904;4.200;2023-12-28T00:30:05;5.88;;;3.30;;
24157;SDS011;12316;50.904;4.200;2023-12-28T00:32:31;4.57;;;3.08;;
24157;SDS011;12316;50.904;4.200;2023-12-28T00:34:57;4.90;;;3.13;;
24157;SDS011;12316;50.904;4.200;2023-12-28T00:37:22;4.75;;;3.08;;
24157;SDS011;12316;50.904;4.200;2023-12-28T00:39:48;3.97;;;2.80;;
24157;SDS011;12316;50.904;4.200;2023-12-28T00:42:15;5.10;;;2.90;;
24157;SDS011;12316;50.904;4.200;2023-12-28T00:44:41;7.05;;;2.70;;
24157;SDS011;12316;50.904;4.200;2023-12-28T00:47:06;4.57;;;3.22;;
24157;SDS011;12316;50.904;4.200;2023-12-28T00:49:32;7.22;;;3.17;;
24157;SDS011;12316;50.904;4.200;2023-12-28T00:51:59;6.40;;;3.17;;
24157;SDS011;12316;50.904;4.200;2023-12-28T00:54:24;4.90;;;2.97;;
24157;SDS011;12316;50.904;4.200;2023-12-28T00:56:50;4.05;;;2.97;;
24157;SDS011;12316;50.904;4.200;2023-12-28T00:59:16;3.58;;;2.70;;
24157;SDS011;12316;50.904;4.200;2023-12-28T01:01:41;5.50;;;3.08;;
24157;SDS011;12316;50.904;4.200;2023-12-28T01:04:07;6.85;;;2.90;;
24157;SDS011;12316;50.904;4.200;2023-12-28T01:06:32;4.82;;;2.90;;
24157;SDS011;12316;50.904;4.200;2023-12-28T01:08:58;6.85;;;3.00;;
24157;SDS011;12316;50.904;4.200;2023-12-28T01:11:24;3.45;;;2.50;;
24157;SDS011;12316;50.904;4.200;2023-12-28T01:13:51;5.03;;;2.83;;
24157;SDS011;12316;50.904;4.200;2023-12-28T01:16:17;5.47;;;3.03;;
24157;SDS011;12316;50.904;4.200;2023-12-28T01:18:42;4.15;;;2.95;;
24157;SDS011;12316;50.904;4.200;2023-12-28T01:21:08;7.35;;;3.00;;
24157;SDS011;12316;50.904;4.200;2023-12-28T01:23:33;5.00;;;3.15;;
24157;SDS011;12316;50.904;4.200;2023-12-28T01:25:59;7.05;;;3.25;;
24157;SDS011;12316;50.904;4.200;2023-12-28T01:28:25;7.10;;;3.30;;
24157;SDS011;12316;50.904;4.200;2023-12-28T01:30:51;5.47;;;3.10;;
24157;SDS011;12316;50.904;4.200;2023-12-28T01:33:17;3.95;;;2.97;;
24157;SDS011;12316;50.904;4.200;2023-12-28T01:35:42;5.07;;;3.35;;
24157;SDS011;12316;50.904;4.200;2023-12-28T01:38:08;5.70;;;3.05;;
24157;SDS011;12316;50.904;4.200;2023-12-28T01:40:34;5.47;;;3.15;;
24157;SDS011;12316;50.904;4.200;2023-12-28T01:42:59;6.72;;;3.17;;
24157;SDS011;12316;50.904;4.200;2023-12-28T01:45:25;6.57;;;3.00;;
24157;SDS011;12316;50.904;4.200;2023-12-28T01:47:52;5.82;;;2.90;;
24157;SDS011;12316;50.904;4.200;2023-12-28T01:50:20;5.80;;;3.22;;
24157;SDS011;12316;50.904;4.200;2023-12-28T01:52:48;6.28;;;2.78;;
24157;SDS011;12316;50.904;4.200;2023-12-28T01:55:14;5.05;;;2.80;;
24157;SDS011;12316;50.904;4.200;2023-12-28T01:57:41;6.00;;;3.20;;
24157;SDS011;12316;50.904;4.200;2023-12-28T02:00:07;5.28;;;3.00;;
24157;SDS011;12316;50.904;4.200;2023-12-28T02:02:33;7.28;;;3.15;;
24157;SDS011;12316;50.904;4.200;2023-12-28T02:05:01;4.88;;;2.72;;
24157;SDS011;12316;50.904;4.200;2023-12-28T02:07:26;6.18;;;2.80;;
24157;SDS011;12316;50.904;4.200;2023-12-28T02:09:54;4.35;;;2.70;;
24157;SDS011;12316;50.904;4.200;2023-12-28T02:12:20;5.18;;;3.00;;
24157;SDS011;12316;50.904;4.200;2023-12-28T02:14:45;6.60;;;2.65;;
24157;SDS011;12316;50.904;4.200;2023-12-28T02:20:01;4.20;;;2.50;;
24157;SDS011;12316;50.904;4.200;2023-12-28T02:22:31;7.13;;;3.03;;
24157;SDS011;12316;50.904;4.200;2023-12-28T02:25:08;6.22;;;2.80;;
24157;SDS011;12316;50.904;4.200;2023-12-28T02:27:44;5.13;;;2.60;;
24157;SDS011;12316;50.904;4.200;2023-12-28T02:30:12;5.03;;;2.80;;
24157;SDS011;12316;50.904;4.200;2023-12-28T02:36:01;5.65;;;2.85;;
24157;SDS011;12316;50.904;4.200;2023-12-28T02:38:24;5.22;;;2.70;;
24157;SDS011;12316;50.904;4.200;2023-12-28T02:40:51;5.65;;;2.70;;
24157;SDS011;12316;50.904;4.200;2023-12-28T02:43:17;8.30;;;3.20;;
24157;SDS011;12316;50.904;4.200;2023-12-28T02:45:43;6.30;;;2.65;;
24157;SDS011;12316;50.904;4.200;2023-12-28T02:48:09;7.40;;;2.70;;
24157;SDS011;12316;50.904;4.200;2023-12-28T02:50:35;6.80;;;3.03;;
24157;SDS011;12316;50.904;4.200;2023-12-28T02:53:00;7.15;;;3.00;;
24157;SDS011;12316;50.904;4.200;2023-12-28T02:55:26;6.97;;;3.20;;
24157;SDS011;12316;50.904;4.200;2023-12-28T02:57:53;5.70;;;2.80;;
24157;SDS011;12316;50.904;4.200;2023-12-28T03:00:20;5.88;;;3.00;;
24157;SDS011;12316;50.904;4.200;2023-12-28T03:02:47;7.68;;;3.03;;
24157;SDS011;12316;50.904;4.200;2023-12-28T03:05:12;7.25;;;2.90;;
24157;SDS011;12316;50.904;4.200;2023-12-28T03:07:38;7.45;;;3.17;;
24157;SDS011;12316;50.904;4.200;2023-12-28T03:10:05;5.47;;;2.85;;
24157;SDS011;12316;50.904;4.200;2023-12-28T03:12:32;8.18;;;2.78;;
24157;SDS011;12316;50.904;4.200;2023-12-28T03:14:58;6.35;;;2.80;;
24157;SDS011;12316;50.904;4.200;2023-12-28T03:17:23;10.00;;;3.10;;
24157;SDS011;12316;50.904;4.200;2023-12-28T03:19:49;4.43;;;2.70;;
24157;SDS011;12316;50.904;4.200;2023-12-28T03:22:15;8.75;;;2.83;;
24157;SDS011;12316;50.904;4.200;2023-12-28T03:24:42;8.35;;;2.88;;
24157;SDS011;12316;50.904;4.200;2023-12-28T03:27:08;7.47;;;2.78;;
24157;SDS011;12316;50.904;4.200;2023-12-28T03:29:34;11.50;;;3.00;;
24157;SDS011;12316;50.904;4.200;2023-12-28T03:32:00;9.13;;;2.90;;
24157;SDS011;12316;50.904;4.200;2023-12-28T03:34:25;6.45;;;2.60;;
24157;SDS011;12316;50.904;4.200;2023-12-28T03:36:54;7.18;;;2.80;;
24157;SDS011;12316;50.904;4.200;2023-12-28T03:39:19;7.68;;;2.63;;
24157;SDS011;12316;50.904;4.200;2023-12-28T03:41:45;8.82;;;2.78;;
24157;SDS011;12316;50.904;4.200;2023-12-28T03:44:11;7.47;;;2.45;;
24157;SDS011;12316;50.904;4.200;2023-12-28T03:46:37;6.85;;;2.90;;
24157;SDS011;12316;50.904;4.200;2023-12-28T03:49:03;4.43;;;2.60;;
24157;SDS011;12316;50.904;4.200;2023-12-28T03:51:29;8.77;;;2.90;;
24157;SDS011;12316;50.904;4.200;2023-12-28T03:53:55;8.20;;;2.53;;
24157;SDS011;12316;50.904;4.200;2023-12-28T03:56:24;6.90;;;2.60;;
24157;SDS011;12316;50.904;4.200;2023-12-28T03:58:51;7.60;;;2.70;;
24157;SDS011;12316;50.904;4.200;2023-12-28T04:01:18;6.45;;;2.50;;
24157;SDS011;12316;50.904;4.200;2023-12-28T04:03:44;11.10;;;2.83;;
24157;SDS011;12316;50.904;4.200;2023-12-28T04:06:10;7.40;;;2.90;;
24157;SDS011;12316;50.904;4.200;2023-12-28T04:08:37;8.35;;;2.58;;
24157;SDS011;12316;50.904;4.200;2023-12-28T04:11:03;7.57;;;2.50;;
24157;SDS011;12316;50.904;4.200;2023-12-28T04:13:29;7.88;;;2.38;;
24157;SDS011;12316;50.904;4.200;2023-12-28T04:15:55;7.50;;;2.50;;
24157;SDS011;12316;50.904;4.200;2023-12-28T04:18:21;8.52;;;2.72;;
24157;SDS011;12316;50.904;4.200;2023-12-28T04:20:46;7.50;;;2.83;;
24157;SDS011;12316;50.904;4.200;2023-12-28T04:23:13;7.90;;;2.53;;
24157;SDS011;12316;50.904;4.200;2023-12-28T04:25:39;9.23;;;2.60;;
24157;SDS011;12316;50.904;4.200;2023-12-28T04:28:05;8.75;;;2.45;;
24157;SDS011;12316;50.904;4.200;2023-12-28T04:30:31;6.93;;;2.15;;
24157;SDS011;12316;50.904;4.200;2023-12-28T04:32:57;8.38;;;2.30;;
24157;SDS011;12316;50.904;4.200;2023-12-28T04:35:23;9.85;;;2.70;;
24157;SDS011;12316;50.904;4.200;2023-12-28T04:37:48;7.38;;;2.20;;
24157;SDS011;12316;50.904;4.200;2023-12-28T04:40:14;10.45;;;2.67;;
24157;SDS011;12316;50.904;4.200;2023-12-28T04:42:40;6.68;;;2.33;;
24157;SDS011;12316;50.904;4.200;2023-12-28T04:45:06;7.70;;;2.60;;
24157;SDS011;12316;50.904;4.200;2023-12-28T04:47:33;7.65;;;2.17;;
24157;SDS011;12316;50.904;4.200;2023-12-28T04:49:59;9.18;;;2.60;;
24157;SDS011;12316;50.904;4.200;2023-12-28T04:52:24;7.45;;;2.20;;
24157;SDS011;12316;50.904;4.200;2023-12-28T04:54:50;11.07;;;2.63;;
24157;SDS011;12316;50.904;4.200;2023-12-28T04:57:16;12.88;;;2.40;;
24157;SDS011;12316;50.904;4.200;2023-12-28T04:59:41;8.00;;;2.20;;
24157;SDS011;12316;50.904;4.200;2023-12-28T05:02:07;9.15;;;2.15;;
24157;SDS011;12316;50.904;4.200;2023-12-28T05:04:33;9.70;;;2.20;;
24157;SDS011;12316;50.904;4.200;2023-12-28T05:07:02;9.25;;;2.47;;
24157;SDS011;12316;50.904;4.200;2023-12-28T05:09:28;7.95;;;2.30;;
24157;SDS011;12316;50.904;4.200;2023-12-28T05:11:54;10.60;;;2.45;;
24157;SDS011;12316;50.904;4.200;2023-12-28T05:14:19;7.25;;;2.50;;
24157;SDS011;12316;50.904;4.200;2023-12-28T05:16:45;9.95;;;2.47;;
24157;SDS011;12316;50.904;4.200;2023-12-28T05:19:10;11.23;;;2.35;;
24157;SDS011;12316;50.904;4.200;2023-12-28T05:21:36;8.90;;;2.20;;
24157;SDS011;12316;50.904;4.200;2023-12-28T05:24:02;10.65;;;2.30;;
24157;SDS011;12316;50.904;4.200;2023-12-28T05:26:28;11.63;;;2.08;;
24157;SDS011;12316;50.904;4.200;2023-12-28T05:28:54;8.35;;;2.20;;
24157;SDS011;12316;50.904;4.200;2023-12-28T05:31:20;10.70;;;2.30;;
24157;SDS011;12316;50.904;4.200;2023-12-28T05:33:46;11.07;;;2.40;;
24157;SDS011;12316;50.904;4.200;2023-12-28T05:36:12;8.15;;;2.38;;
24157;SDS011;12316;50.904;4.200;2023-12-28T05:38:37;9.77;;;2.08;;
24157;SDS011;12316;50.904;4.200;2023-12-28T05:41:03;11.32;;;2.15;;
24157;SDS011;12316;50.904;4.200;2023-12-28T05:43:29;10.63;;;2.50;;
24157;SDS011;12316;50.904;4.200;2023-12-28T05:45:55;12.88;;;2.53;;
24157;SDS011;12316;50.904;4.200;2023-12-28T05:48:20;7.55;;;2.17;;
24157;SDS011;12316;50.904;4.200;2023-12-28T05:50:46;8.70;;;2.30;;
24157;SDS011;12316;50.904;4.200;2023-12-28T05:53:12;12.75;;;2.13;;
24157;SDS011;12316;50.904;4.200;2023-12-28T05:55:39;11.77;;;2.47;;
24157;SDS011;12316;50.904;4.200;2023-12-28T05:58:05;11.82;;;2.40;;
24157;SDS011;12316;50.904;4.200;2023-12-28T06:00:31;9.95;;;2.20;;
24157;SDS011;12316;50.904;4.200;2023-12-28T06:02:57;13.45;;;2.72;;
24157;SDS011;12316;50.904;4.200;2023-12-28T06:05:23;15.52;;;2.67;;
24157;SDS011;12316;50.904;4.200;2023-12-28T06:07:48;11.10;;;1.98;;
24157;SDS011;12316;50.904;4.200;2023-12-28T06:10:14;10.98;;;2.50;;
24157;SDS011;12316;50.904;4.200;2023-12-28T06:12:40;11.40;;;2.33;;
24157;SDS011;12316;50.904;4.200;2023-12-28T06:15:05;10.27;;;2.40;;
24157;SDS011;12316;50.904;4.200;2023-12-28T06:17:31;16.13;;;2.55;;
24157;SDS011;12316;50.904;4.200;2023-12-28T06:19:57;10.68;;;2.45;;
24157;SDS011;12316;50.904;4.200;2023-12-28T06:22:23;9.30;;;2.47;;
24157;SDS011;12316;50.904;4.200;2023-12-28T06:24:52;9.45;;;2.00;;
24157;SDS011;12316;50.904;4.200;2023-12-28T06:27:21;14.93;;;2.28;;
24157;SDS011;12316;50.904;4.200;2023-12-28T06:29:48;13.73;;;2.50;;
24157;SDS011;12316;50.904;4.200;2023-12-28T06:32:14;12.90;;;2.65;;
24157;SDS011;12316;50.904;4.200;2023-12-28T06:34:40;10.13;;;2.65;;
24157;SDS011;12316;50.904;4.200;2023-12-28T06:37:05;17.08;;;2.22;;
24157;SDS011;12316;50.904;4.200;2023-12-28T06:39:31;11.45;;;2.15;;
24157;SDS011;12316;50.904;4.200;2023-12-28T06:41:57;13.70;;;2.60;;
24157;SDS011;12316;50.904;4.200;2023-12-28T06:44:22;11.55;;;2.20;;
24157;SDS011;12316;50.904;4.200;2023-12-28T06:46:48;19.83;;;2.70;;
24157;SDS011;12316;50.904;4.200;2023-12-28T06:49:14;16.25;;;2.30;;
24157;SDS011;12316;50.904;4.200;2023-12-28T06:51:39;9.40;;;2.20;;
24157;SDS011;12316;50.904;4.200;2023-12-28T06:54:05;16.38;;;2.50;;
24157;SDS011;12316;50.904;4.200;2023-12-28T06:56:31;10.15;;;1.98;;
24157;SDS011;12316;50.904;4.200;2023-12-28T06:58:56;10.88;;;2.08;;
24157;SDS011;12316;50.904;4.200;2023-12-28T07:01:22;13.65;;;2.40;;
24157;SDS011;12316;50.904;4.200;2023-12-28T07:03:47;12.30;;;2.33;;
24157;SDS011;12316;50.904;4.200;2023-12-28T07:06:13;15.68;;;2.50;;
24157;SDS011;12316;50.904;4.200;2023-12-28T07:08:39;16.30;;;2.78;;
24157;SDS011;12316;50.904;4.200;2023-12-28T07:11:05;13.23;;;2.03;;
24157;SDS011;12316;50.904;4.200;2023-12-28T07:13:30;16.65;;;2.13;;
24157;SDS011;12316;50.904;4.200;2023-12-28T07:15:56;14.20;;;2.60;;
24157;SDS011;12316;50.904;4.200;2023-12-28T07:18:22;11.23;;;2.45;;
24157;SDS011;12316;50.904;4.200;2023-12-28T07:20:48;16.67;;;2.40;;
24157;SDS011;12316;50.904;4.200;2023-12-28T07:23:14;8.70;;;2.08;;
24157;SDS011;12316;50.904;4.200;2023-12-28T07:25:40;11.63;;;2.00;;
24157;SDS011;12316;50.904;4.200;2023-12-28T07:28:06;11.82;;;2.22;;
24157;SDS011;12316;50.904;4.200;2023-12-28T07:30:31;13.07;;;2.15;;
24157;SDS011;12316;50.904;4.200;2023-12-28T07:32:57;8.88;;;2.45;;
24157;SDS011;12316;50.904;4.200;2023-12-28T07:35:23;12.27;;;2.25;;
24157;SDS011;12316;50.904;4.200;2023-12-28T07:37:48;13.23;;;2.17;;
24157;SDS011;12316;50.904;4.200;2023-12-28T07:40:14;14.13;;;2.22;;
24157;SDS011;12316;50.904;4.200;2023-12-28T07:42:40;12.98;;;2.20;;
24157;SDS011;12316;50.904;4.200;2023-12-28T07:45:06;12.40;;;2.10;;
24157;SDS011;12316;50.904;4.200;2023-12-28T07:47:32;14.05;;;2.47;;
24157;SDS011;12316;50.904;4.200;2023-12-28T07:49:58;14.35;;;2.33;;
24157;SDS011;12316;50.904;4.200;2023-12-28T07:52:25;16.92;;;2.35;;
24157;SDS011;12316;50.904;4.200;2023-12-28T07:54:51;11.13;;;2.10;;
24157;SDS011;12316;50.904;4.200;2023-12-28T07:57:17;12.52;;;2.65;;
24157;SDS011;12316;50.904;4.200;2023-12-28T07:59:43;14.20;;;2.10;;
24157;SDS011;12316;50.904;4.200;2023-12-28T08:02:09;15.90;;;2.58;;
24157;SDS011;12316;50.904;4.200;2023-12-28T08:04:34;14.50;;;2.83;;
24157;SDS011;12316;50.904;4.200;2023-12-28T08:07:00;14.63;;;2.38;;
24157;SDS011;12316;50.904;4.200;2023-12-28T08:09:26;17.70;;;2.60;;
24157;SDS011;12316;50.904;4.200;2023-12-28T08:11:52;11.70;;;2.15;;
24157;SDS011;12316;50.904;4.200;2023-12-28T08:14:17;12.07;;;2.20;;
24157;SDS011;12316;50.904;4.200;2023-12-28T08:16:44;13.35;;;2.30;;
24157;SDS011;12316;50.904;4.200;2023-12-28T08:19:12;13.70;;;2.45;;
24157;SDS011;12316;50.904;4.200;2023-12-28T08:21:38;15.60;;;2.50;;
24157;SDS011;12316;50.904;4.200;2023-12-28T08:24:04;12.70;;;2.60;;
24157;SDS011;12316;50.904;4.200;2023-12-28T08:26:30;14.95;;;2.50;;
24157;SDS011;12316;50.904;4.200;2023-12-28T08:28:57;11.15;;;1.90;;
24157;SDS011;12316;50.904;4.200;2023-12-28T08:31:24;15.18;;;2.20;;
24157;SDS011;12316;50.904;4.200;2023-12-28T08:33:49;11.30;;;2.42;;
24157;SDS011;12316;50.904;4.200;2023-12-28T08:36:15;12.27;;;2.10;;
24157;SDS011;12316;50.904;4.200;2023-12-28T08:38:42;16.15;;;2.38;;
24157;SDS011;12316;50.904;4.200;2023-12-28T08:41:17;14.63;;;3.20;;
24157;SDS011;12316;50.904;4.200;2023-12-28T08:43:46;17.13;;;2.60;;
24157;SDS011;12316;50.904;4.200;2023-12-28T08:46:13;14.02;;;2.22;;
24157;SDS011;12316;50.904;4.200;2023-12-28T08:48:40;14.07;;;2.58;;
24157;SDS011;12316;50.904;4.200;2023-12-28T08:51:06;13.63;;;2.60;;
24157;SDS011;12316;50.904;4.200;2023-12-28T08:53:32;14.32;;;2.03;;
24157;SDS011;12316;50.904;4.200;2023-12-28T08:55:57;11.85;;;2.45;;
24157;SDS011;12316;50.904;4.200;2023-12-28T08:58:23;12.93;;;2.08;;
24157;SDS011;12316;50.904;4.200;2023-12-28T09:00:49;13.07;;;2.22;;
24157;SDS011;12316;50.904;4.200;2023-12-28T09:03:15;14.63;;;2.10;;
24157;SDS011;12316;50.904;4.200;2023-12-28T09:05:41;16.63;;;2.80;;
24157;SDS011;12316;50.904;4.200;2023-12-28T09:08:06;14.38;;;2.30;;
24157;SDS011;12316;50.904;4.200;2023-12-28T09:10:33;16.70;;;2.60;;
24157;SDS011;12316;50.904;4.200;2023-12-28T09:12:58;17.25;;;2.35;;
24157;SDS011;12316;50.904;4.200;2023-12-28T09:15:24;13.38;;;2.33;;
24157;SDS011;12316;50.904;4.200;2023-12-28T09:17:50;14.57;;;2.50;;
24157;SDS011;12316;50.904;4.200;2023-12-28T09:20:15;13.13;;;2.10;;
24157;SDS011;12316;50.904;4.200;2023-12-28T09:22:41;12.05;;;2.20;;
24157;SDS011;12316;50.904;4.200;2023-12-28T09:25:07;15.63;;;2.33;;
24157;SDS011;12316;50.904;4.200;2023-12-28T09:27:33;18.23;;;2.88;;
24157;SDS011;12316;50.904;4.200;2023-12-28T09:29:59;17.60;;;2.60;;
24157;SDS011;12316;50.904;4.200;2023-12-28T09:32:25;15.85;;;2.83;;
24157;SDS011;12316;50.904;4.200;2023-12-28T09:34:50;12.45;;;2.33;;
24157;SDS011;12316;50.904;4.200;2023-12-28T09:37:16;13.68;;;2.45;;
24157;SDS011;12316;50.904;4.200;2023-12-28T09:39:41;13.90;;;2.78;;
24157;SDS011;12316;50.904;4.200;2023-12-28T09:42:14;13.77;;;2.17;;
24157;SDS011;12316;50.904;4.200;2023-12-28T09:44:47;16.63;;;2.72;;
24157;SDS011;12316;50.904;4.200;2023-12-28T09:47:14;12.80;;;2.40;;
24157;SDS011;12316;50.904;4.200;2023-12-28T09:49:40;13.18;;;2.22;;
24157;SDS011;12316;50.904;4.200;2023-12-28T09:52:08;12.68;;;1.98;;
24157;SDS011;12316;50.904;4.200;2023-12-28T09:54:34;20.42;;;3.60;;
24157;SDS011;12316;50.904;4.200;2023-12-28T09:57:00;18.92;;;2.65;;
24157;SDS011;12316;50.904;4.200;2023-12-28T09:59:26;16.42;;;2.92;;
24157;SDS011;12316;50.904;4.200;2023-12-28T10:01:53;15.45;;;2.40;;
24157;SDS011;12316;50.904;4.200;2023-12-28T10:04:21;21.88;;;2.72;;
24157;SDS011;12316;50.904;4.200;2023-12-28T10:06:47;12.45;;;2.85;;
24157;SDS011;12316;50.904;4.200;2023-12-28T10:09:12;14.85;;;2.50;;
24157;SDS011;12316;50.904;4.200;2023-12-28T10:11:38;17.50;;;2.40;;
24157;SDS011;12316;50.904;4.200;2023-12-28T10:14:04;12.45;;;2.58;;
24157;SDS011;12316;50.904;4.200;2023-12-28T10:16:32;13.73;;;2.25;;
24157;SDS011;12316;50.904;4.200;2023-12-28T10:18:57;16.10;;;2.47;;
24157;SDS011;12316;50.904;4.200;2023-12-28T10:21:23;15.82;;;3.20;;
24157;SDS011;12316;50.904;4.200;2023-12-28T10:23:49;13.73;;;2.72;;
24157;SDS011;12316;50.904;4.200;2023-12-28T10:26:17;14.00;;;2.38;;
24157;SDS011;12316;50.904;4.200;2023-12-28T10:28:44;16.35;;;3.45;;
24157;SDS011;12316;50.904;4.200;2023-12-28T10:31:09;13.52;;;2.30;;
24157;SDS011;12316;50.904;4.200;2023-12-28T10:33:36;13.80;;;2.50;;
24157;SDS011;12316;50.904;4.200;2023-12-28T10:36:06;18.48;;;2.47;;
24157;SDS011;12316;50.904;4.200;2023-12-28T10:38:34;16.13;;;2.35;;
24157;SDS011;12316;50.904;4.200;2023-12-28T10:41:06;14.50;;;2.70;;
24157;SDS011;12316;50.904;4.200;2023-12-28T10:46:14;19.63;;;3.00;;
24157;SDS011;12316;50.904;4.200;2023-12-28T10:48:47;12.95;;;2.30;;
24157;SDS011;12316;50.904;4.200;2023-12-28T10:51:16;15.55;;;2.80;;
24157;SDS011;12316;50.904;4.200;2023-12-28T10:56:31;19.67;;;2.67;;
24157;SDS011;12316;50.904;4.200;2023-12-28T10:59:29;13.57;;;2.83;;
24157;SDS011;12316;50.904;4.200;2023-12-28T11:01:58;16.33;;;2.55;;
24157;SDS011;12316;50.904;4.200;2023-12-28T11:04:42;12.48;;;2.50;;
24157;SDS011;12316;50.904;4.200;2023-12-28T11:07:13;14.85;;;2.75;;
24157;SDS011;12316;50.904;4.200;2023-12-28T11:09:42;21.75;;;3.10;;
24157;SDS011;12316;50.904;4.200;2023-12-28T11:12:08;17.83;;;3.10;;
24157;SDS011;12316;50.904;4.200;2023-12-28T11:14:40;12.73;;;2.30;;
24157;SDS011;12316;50.904;4.200;2023-12-28T11:17:07;15.40;;;2.40;;
24157;SDS011;12316;50.904;4.200;2023-12-28T11:19:35;17.50;;;2.80;;
24157;SDS011;12316;50.904;4.200;2023-12-28T11:22:02;17.55;;;3.25;;
24157;SDS011;12316;50.904;4.200;2023-12-28T11:24:29;20.63;;;2.90;;
24157;SDS011;12316;50.904;4.200;2023-12-28T11:26:55;16.20;;;2.58;;
24157;SDS011;12316;50.904;4.200;2023-12-28T11:29:22;16.77;;;2.88;;
24157;SDS011;12316;50.904;4.200;2023-12-28T11:31:54;13.27;;;2.50;;
24157;SDS011;12316;50.904;4.200;2023-12-28T11:34:27;16.38;;;2.63;;
24157;SDS011;12316;50.904;4.200;2023-12-28T11:36:57;18.88;;;2.83;;
24157;SDS011;12316;50.904;4.200;2023-12-28T11:39:31;13.45;;;2.78;;
24157;SDS011;12316;50.904;4.200;2023-12-28T11:42:05;15.00;;;3.00;;
24157;SDS011;12316;50.904;4.200;2023-12-28T11:44:39;15.68;;;2.95;;
24157;SDS011;12316;50.904;4.200;2023-12-28T11:47:16;18.02;;;2.70;;
24157;SDS011;12316;50.904;4.200;2023-12-28T11:49:46;18.33;;;2.50;;
24157;SDS011;12316;50.904;4.200;2023-12-28T11:54:50;16.75;;;3.08;;
24157;SDS011;12316;50.904;4.200;2023-12-28T11:57:16;16.50;;;2.67;;
24157;SDS011;12316;50.904;4.200;2023-12-28T11:59:41;15.50;;;2.65;;
24157;SDS011;12316;50.904;4.200;2023-12-28T12:02:08;13.15;;;2.45;;
24157;SDS011;12316;50.904;4.200;2023-12-28T12:04:34;16.67;;;2.80;;
24157;SDS011;12316;50.904;4.200;2023-12-28T12:07:03;19.58;;;2.88;;
24157;SDS011;12316;50.904;4.200;2023-12-28T12:09:30;15.15;;;2.85;;
24157;SDS011;12316;50.904;4.200;2023-12-28T12:12:02;15.98;;;2.95;;
24157;SDS011;12316;50.904;4.200;2023-12-28T12:14:29;13.82;;;2.50;;
24157;SDS011;12316;50.904;4.200;2023-12-28T12:16:55;15.35;;;2.47;;
24157;SDS011;12316;50.904;4.200;2023-12-28T12:19:25;16.35;;;2.67;;
24157;SDS011;12316;50.904;4.200;2023-12-28T12:21:52;19.98;;;3.05;;
24157;SDS011;12316;50.904;4.200;2023-12-28T12:24:18;19.95;;;2.97;;
24157;SDS011;12316;50.904;4.200;2023-12-28T12:26:47;16.52;;;2.78;;
24157;SDS011;12316;50.904;4.200;2023-12-28T12:29:17;17.95;;;2.70;;
24157;SDS011;12316;50.904;4.200;2023-12-28T12:31:43;20.15;;;3.22;;
24157;SDS011;12316;50.904;4.200;2023-12-28T12:34:11;17.90;;;2.97;;
24157;SDS011;12316;50.904;4.200;2023-12-28T12:36:40;17.00;;;2.90;;
24157;SDS011;12316;50.904;4.200;2023-12-28T12:39:05;19.75;;;2.67;;
24157;SDS011;12316;50.904;4.200;2023-12-28T12:41:34;17.33;;;2.40;;
24157;SDS011;12316;50.904;4.200;2023-12-28T12:44:00;14.45;;;2.55;;
24157;SDS011;12316;50.904;4.200;2023-12-28T12:46:27;14.35;;;2.20;;
24157;SDS011;12316;50.904;4.200;2023-12-28T12:48:56;20.33;;;2.95;;
24157;SDS011;12316;50.904;4.200;2023-12-28T12:51:23;14.18;;;2.60;;
24157;SDS011;12316;50.904;4.200;2023-12-28T12:54:01;16.13;;;2.78;;
24157;SDS011;12316;50.904;4.200;2023-12-28T12:56:28;13.95;;;2.35;;
24157;SDS011;12316;50.904;4.200;2023-12-28T12:58:55;16.40;;;2.63;;
24157;SDS011;12316;50.904;4.200;2023-12-28T13:01:21;15.65;;;2.67;;
24157;SDS011;12316;50.904;4.200;2023-12-28T13:03:51;16.35;;;2.40;;
24157;SDS011;12316;50.904;4.200;2023-12-28T13:06:16;17.48;;;2.70;;
24157;SDS011;12316;50.904;4.200;2023-12-28T13:08:43;12.77;;;2.38;;
24157;SDS011;12316;50.904;4.200;2023-12-28T13:11:08;16.35;;;2.50;;
24157;SDS011;12316;50.904;4.200;2023-12-28T13:13:34;12.32;;;2.53;;
24157;SDS011;12316;50.904;4.200;2023-12-28T13:16:04;13.65;;;2.42;;
24157;SDS011;12316;50.904;4.200;2023-12-28T13:18:30;14.25;;;2.47;;
24157;SDS011;12316;50.904;4.200;2023-12-28T13:20:57;13.68;;;2.33;;
24157;SDS011;12316;50.904;4.200;2023-12-28T13:23:23;14.02;;;2.50;;
24157;SDS011;12316;50.904;4.200;2023-12-28T13:25:49;18.13;;;2.60;;
24157;SDS011;12316;50.904;4.200;2023-12-28T13:28:14;13.27;;;2.22;;
24157;SDS011;12316;50.904;4.200;2023-12-28T13:30:40;18.23;;;2.60;;
24157;SDS011;12316;50.904;4.200;2023-12-28T13:33:06;16.77;;;2.67;;
24157;SDS011;12316;50.904;4.200;2023-12-28T13:35:32;18.52;;;2.70;;
24157;SDS011;12316;50.904;4.200;2023-12-28T13:38:00;13.13;;;2.25;;
24157;SDS011;12316;50.904;4.200;2023-12-28T13:40:26;16.42;;;2.50;;
24157;SDS011;12316;50.904;4.200;2023-12-28T13:42:53;18.73;;;2.60;;
24157;SDS011;12316;50.904;4.200;2023-12-28T13:45:18;11.80;;;2.08;;
24157;SDS011;12316;50.904;4.200;2023-12-28T13:47:44;14.95;;;2.42;;
24157;SDS011;12316;50.904;4.200;2023-12-28T13:50:10;17.95;;;2.58;;
24157;SDS011;12316;50.904;4.200;2023-12-28T13:52:36;15.88;;;2.88;;
24157;SDS011;12316;50.904;4.200;2023-12-28T13:55:01;18.23;;;2.58;;
24157;SDS011;12316;50.904;4.200;2023-12-28T13:57:27;14.57;;;2.45;;
24157;SDS011;12316;50.904;4.200;2023-12-28T13:59:53;14.15;;;2.53;;
24157;SDS011;12316;50.904;4.200;2023-12-28T14:02:21;16.77;;;2.28;;
24157;SDS011;12316;50.904;4.200;2023-12-28T14:04:47;13.88;;;2.13;;
24157;SDS011;12316;50.904;4.200;2023-12-28T14:07:12;15.05;;;2.65;;
24157;SDS011;12316;50.904;4.200;2023-12-28T14:09:38;15.48;;;2.75;;
24157;SDS011;12316;50.904;4.200;2023-12-28T14:12:04;14.50;;;2.38;;
24157;SDS011;12316;50.904;4.200;2023-12-28T14:14:30;13.98;;;2.65;;
24157;SDS011;12316;50.904;4.200;2023-12-28T14:16:56;15.85;;;2.33;;
24157;SDS011;12316;50.904;4.200;2023-12-28T14:19:21;14.48;;;2.70;;
24157;SDS011;12316;50.904;4.200;2023-12-28T14:21:47;18.10;;;2.45;;
24157;SDS011;12316;50.904;4.200;2023-12-28T14:24:13;13.85;;;2.58;;
24157;SDS011;12316;50.904;4.200;2023-12-28T14:26:40;18.10;;;2.75;;
24157;SDS011;12316;50.904;4.200;2023-12-28T14:29:10;21.05;;;2.70;;
24157;SDS011;12316;50.904;4.200;2023-12-28T14:31:37;15.77;;;3.00;;
24157;SDS011;12316;50.904;4.200;2023-12-28T14:34:03;14.30;;;2.65;;
24157;SDS011;12316;50.904;4.200;2023-12-28T14:36:32;13.15;;;2.80;;
24157;SDS011;12316;50.904;4.200;2023-12-28T14:39:01;12.63;;;2.35;;
24157;SDS011;12316;50.904;4.200;2023-12-28T14:41:29;16.38;;;3.00;;
24157;SDS011;12316;50.904;4.200;2023-12-28T14:43:55;17.48;;;3.40;;
24157;SDS011;12316;50.904;4.200;2023-12-28T14:46:24;13.95;;;2.22;;
24157;SDS011;12316;50.904;4.200;2023-12-28T14:48:51;17.98;;;2.75;;